Wesleyville, Canada
Current Conditions -  °F | °C
As of 3:00 AM on Friday 19 Dec 2014 (Local Time) from CYQX Reporting Station
Drizzle Drizzle  
Wind Chill: 33°   Ceiling: 100
Heat Index: 37°   Visibility: 0.12mi
Dew Point: 37°   Wind: 6mph
Humidity: 100%   Direction: 100°E
Pressure: 29.43"   Gusts: NA
Location:  49.15°N, 53.58°W
Report Text: CYQX 190600Z 10005KT 1/8SM R03/2400FT/N R13/2000FT/N -DZ FG VV001 03/03 A2943 RMK FG8 SLP973
Loading
Personal Weather Stations






























Interactive Weather Map New forecast layout! Learn more

10-Day Weather Forecast

Advertisements
Track Severe Weather on mobile